createdAt,value
2017-10-29T00:00:28.848Z,19.17
2017-10-29T00:02:56.489Z,21.07
2017-10-29T00:05:23.326Z,19.90
2017-10-29T00:07:50.187Z,20.67
2017-10-29T00:10:17.077Z,21.00
2017-10-29T00:12:43.909Z,19.40
2017-10-29T00:15:10.741Z,18.93
2017-10-29T00:17:37.838Z,18.97
2017-10-29T00:20:04.679Z,17.03
2017-10-29T00:22:31.583Z,16.80
2017-10-29T00:24:58.436Z,16.50
2017-10-29T00:27:25.260Z,16.73
2017-10-29T00:29:52.154Z,17.23
2017-10-29T00:32:19.098Z,16.10
2017-10-29T00:34:45.969Z,15.57
2017-10-29T00:37:12.857Z,14.67
2017-10-29T00:39:39.761Z,12.60
2017-10-29T00:42:07.445Z,13.23
2017-10-29T00:44:35.040Z,13.87
2017-10-29T00:47:01.912Z,13.03
2017-10-29T00:49:28.785Z,12.90
2017-10-29T00:51:55.708Z,12.93
2017-10-29T00:54:23.344Z,13.93
2017-10-29T00:56:50.296Z,14.43
2017-10-29T00:59:17.161Z,13.77
2017-10-29T01:01:44.105Z,13.00
2017-10-29T01:04:11.051Z,12.00
2017-10-29T01:06:37.980Z,13.27
2017-10-29T01:09:04.885Z,12.77
2017-10-29T01:11:31.785Z,13.43
2017-10-29T01:13:58.685Z,10.23
2017-10-29T01:16:26.464Z,9.90
2017-10-29T01:18:54.041Z,10.37
2017-10-29T01:21:22.064Z,9.60
2017-10-29T01:23:48.917Z,10.50
2017-10-29T01:26:15.818Z,9.30
2017-10-29T01:28:42.668Z,9.63
2017-10-29T01:31:09.524Z,10.90
2017-10-29T01:33:36.427Z,11.27
2017-10-29T01:36:04.070Z,12.10
2017-10-29T01:38:30.922Z,11.17
2017-10-29T01:40:57.783Z,11.97
2017-10-29T01:43:24.641Z,12.00
2017-10-29T01:45:51.471Z,12.87
2017-10-29T01:48:19.041Z,12.20
2017-10-29T01:50:46.636Z,12.50
2017-10-29T01:53:13.506Z,11.90
2017-10-29T01:55:40.307Z,13.00
2017-10-29T01:58:07.121Z,13.30
2017-10-29T02:00:34.086Z,11.60
2017-10-29T02:03:00.896Z,10.93
2017-10-29T02:05:27.708Z,9.37
2017-10-29T02:07:54.555Z,9.80
2017-10-29T02:10:22.077Z,11.40
2017-10-29T02:12:48.904Z,10.80
2017-10-29T02:15:15.812Z,12.70
2017-10-29T02:17:42.635Z,14.23
2017-10-29T02:20:09.472Z,15.20
2017-10-29T02:22:37.057Z,14.80
2017-10-29T02:25:04.661Z,14.17
2017-10-29T02:27:31.494Z,14.30
2017-10-29T02:29:58.422Z,12.70
2017-10-29T02:32:25.258Z,12.00
2017-10-29T02:34:52.118Z,9.57
2017-10-29T02:37:18.979Z,6.80
2017-10-29T02:39:45.855Z,6.37
2017-10-29T02:42:12.756Z,4.70
2017-10-29T02:44:39.641Z,4.20
2017-10-29T02:47:06.475Z,4.60
2017-10-29T02:49:33.277Z,4.63
2017-10-29T02:52:00.105Z,4.60
2017-10-29T02:54:26.994Z,4.50
2017-10-29T02:56:53.809Z,3.87
2017-10-29T02:59:20.652Z,3.90
2017-10-29T03:01:47.497Z,4.03
2017-10-29T03:04:14.356Z,3.53
2017-10-29T03:06:41.254Z,4.80
2017-10-29T03:09:08.116Z,4.70
2017-10-29T03:11:34.960Z,5.40
2017-10-29T03:14:01.800Z,5.33
2017-10-29T03:16:28.675Z,5.63
2017-10-29T03:18:55.483Z,4.80
2017-10-29T03:21:23.094Z,5.07
2017-10-29T03:23:50.262Z,4.33
2017-10-29T03:26:17.094Z,4.67
2017-10-29T03:28:44.632Z,4.80
2017-10-29T03:31:11.567Z,3.90
2017-10-29T03:33:38.372Z,4.33
2017-10-29T03:36:05.231Z,5.07
2017-10-29T03:38:32.070Z,5.27
2017-10-29T03:40:58.884Z,4.70
2017-10-29T03:43:25.753Z,4.23
2017-10-29T03:45:52.596Z,4.57
2017-10-29T03:48:19.472Z,3.37
2017-10-29T03:50:46.296Z,4.93
2017-10-29T03:53:13.119Z,2.53
2017-10-29T03:55:40.006Z,2.77
2017-10-29T03:58:06.843Z,3.00
2017-10-29T04:00:33.748Z,3.37
2017-10-29T04:03:00.590Z,2.50
2017-10-29T04:05:27.497Z,3.10
2017-10-29T04:07:54.323Z,3.23
2017-10-29T04:10:21.300Z,3.27
2017-10-29T04:12:48.162Z,4.00
2017-10-29T04:15:15.802Z,4.50
2017-10-29T04:17:42.676Z,3.17
2017-10-29T04:20:09.521Z,3.63
2017-10-29T04:22:36.380Z,3.10
2017-10-29T04:25:03.318Z,3.40
2017-10-29T04:27:30.248Z,3.57
2017-10-29T04:29:57.128Z,3.90
2017-10-29T04:32:24.692Z,3.67
2017-10-29T04:34:52.302Z,3.57
2017-10-29T04:37:19.171Z,3.00
2017-10-29T04:39:46.065Z,3.70
2017-10-29T04:42:12.960Z,2.40
2017-10-29T04:44:40.588Z,3.30
2017-10-29T04:47:07.559Z,4.40
2017-10-29T04:49:34.393Z,2.50
2017-10-29T04:52:01.273Z,3.97
2017-10-29T04:54:28.163Z,3.40
2017-10-29T04:56:54.986Z,2.80
2017-10-29T04:59:21.809Z,3.20
2017-10-29T05:01:48.658Z,3.93
2017-10-29T05:04:15.477Z,3.20
2017-10-29T05:06:43.073Z,3.57
2017-10-29T05:09:10.028Z,3.47
2017-10-29T05:11:36.903Z,3.10
2017-10-29T05:14:03.747Z,4.30
2017-10-29T05:16:30.567Z,4.03
2017-10-29T05:18:58.216Z,4.17
2017-10-29T05:21:26.035Z,4.20
2017-10-29T05:23:52.879Z,4.27
2017-10-29T05:26:20.491Z,4.60
2017-10-29T05:28:47.346Z,4.30
2017-10-29T05:31:14.233Z,4.70
2017-10-29T05:33:41.126Z,4.53
2017-10-29T05:36:08.016Z,4.73
2017-10-29T05:38:35.612Z,5.03
2017-10-29T05:41:02.540Z,4.90
2017-10-29T05:43:29.376Z,4.50
2017-10-29T05:45:56.264Z,6.00
2017-10-29T05:48:23.139Z,4.13
2017-10-29T05:50:50.745Z,4.77
2017-10-29T05:53:18.576Z,4.73
2017-10-29T05:55:45.400Z,4.00
2017-10-29T05:58:12.284Z,4.27
2017-10-29T06:00:39.198Z,5.00
2017-10-29T06:03:06.151Z,3.63
2017-10-29T06:05:33.791Z,5.60
2017-10-29T06:08:00.661Z,3.73
2017-10-29T06:10:27.535Z,4.20
2017-10-29T06:12:55.102Z,3.97
2017-10-29T06:15:22.097Z,3.90
2017-10-29T06:17:49.653Z,3.60
2017-10-29T06:20:16.557Z,4.13
2017-10-29T06:22:43.429Z,4.97
2017-10-29T06:25:10.347Z,6.50
2017-10-29T06:27:37.245Z,4.37
2017-10-29T06:30:04.276Z,5.30
2017-10-29T06:32:31.189Z,5.90
2017-10-29T06:34:58.148Z,5.87
2017-10-29T06:37:24.997Z,5.57
2017-10-29T06:39:51.844Z,5.60
2017-10-29T06:42:19.394Z,7.57
2017-10-29T06:44:46.318Z,6.30
2017-10-29T06:47:13.123Z,6.13
2017-10-29T06:49:40.028Z,5.93
2017-10-29T06:52:06.882Z,6.87
2017-10-29T06:54:33.749Z,4.47
2017-10-29T06:57:00.708Z,5.27
2017-10-29T06:59:27.639Z,5.70
2017-10-29T07:01:55.330Z,7.03
2017-10-29T07:04:23.034Z,5.80
2017-10-29T07:06:49.975Z,5.27
2017-10-29T07:09:17.693Z,5.27
2017-10-29T07:11:44.638Z,5.40
2017-10-29T07:14:11.591Z,5.50
2017-10-29T07:16:39.221Z,5.97
2017-10-29T07:19:06.141Z,6.67
2017-10-29T07:21:32.989Z,5.93
2017-10-29T07:24:00.735Z,6.13
2017-10-29T07:26:27.614Z,5.67
2017-10-29T07:28:54.622Z,6.23
2017-10-29T07:31:21.594Z,6.23
2017-10-29T07:33:48.542Z,4.83
2017-10-29T07:36:15.437Z,5.33
2017-10-29T07:38:42.358Z,6.63
2017-10-29T07:41:09.276Z,5.20
2017-10-29T07:43:36.113Z,5.90
2017-10-29T07:46:03.014Z,8.20
2017-10-29T07:48:30.063Z,6.80
2017-10-29T07:50:57.705Z,5.13
2017-10-29T07:53:24.652Z,6.20
2017-10-29T07:55:52.241Z,5.23
2017-10-29T07:58:19.090Z,6.13
2017-10-29T08:00:46.697Z,6.23
2017-10-29T08:03:13.576Z,7.40
2017-10-29T08:05:40.441Z,5.87
2017-10-29T08:08:07.443Z,6.07
2017-10-29T08:10:34.357Z,5.87
2017-10-29T08:13:01.297Z,6.07
2017-10-29T08:15:28.178Z,6.37
2017-10-29T08:17:55.109Z,5.50
2017-10-29T08:20:22.940Z,4.90
2017-10-29T08:22:49.842Z,5.40
2017-10-29T08:25:17.451Z,5.60
2017-10-29T08:27:44.384Z,6.17
2017-10-29T08:30:11.992Z,4.77
2017-10-29T08:32:38.899Z,4.60
2017-10-29T08:35:05.820Z,6.50
2017-10-29T08:37:32.694Z,4.90
2017-10-29T08:39:59.591Z,4.00
2017-10-29T08:42:26.502Z,5.10
2017-10-29T08:44:53.346Z,5.30
2017-10-29T08:47:20.928Z,4.53
2017-10-29T08:49:47.768Z,4.10
2017-10-29T08:52:14.633Z,4.20
2017-10-29T08:54:41.555Z,3.90
2017-10-29T08:57:08.608Z,4.03
2017-10-29T08:59:35.451Z,4.70
2017-10-29T09:02:02.354Z,4.40
2017-10-29T09:04:29.252Z,4.50
2017-10-29T09:06:56.905Z,4.00
2017-10-29T09:09:23.810Z,5.00
2017-10-29T09:11:50.708Z,3.57
2017-10-29T09:14:17.607Z,3.60
2017-10-29T09:16:44.453Z,5.97
2017-10-29T09:19:11.379Z,4.40
2017-10-29T09:21:38.274Z,4.77
2017-10-29T09:24:05.127Z,6.10
2017-10-29T09:26:32.084Z,4.97
2017-10-29T09:28:58.958Z,4.47
2017-10-29T09:31:25.800Z,4.97
2017-10-29T09:33:52.659Z,5.03
2017-10-29T09:36:19.612Z,5.87
2017-10-29T09:38:46.497Z,5.77
2017-10-29T09:41:13.350Z,5.70
2017-10-29T09:43:40.215Z,5.67
2017-10-29T09:46:07.079Z,5.70
2017-10-29T09:48:33.974Z,4.57
2017-10-29T09:51:00.874Z,5.43
2017-10-29T09:53:27.727Z,5.23
2017-10-29T09:55:55.298Z,4.47
2017-10-29T09:58:22.949Z,6.13
2017-10-29T10:00:49.857Z,5.47
2017-10-29T10:03:16.744Z,4.07
2017-10-29T10:05:43.634Z,4.40
2017-10-29T10:08:10.595Z,4.53
2017-10-29T10:10:37.438Z,4.10
2017-10-29T10:13:04.351Z,2.53
2017-10-29T10:15:31.264Z,2.87
2017-10-29T10:17:58.109Z,2.73
2017-10-29T10:20:25.058Z,3.70
2017-10-29T10:22:52.036Z,2.83
2017-10-29T10:25:18.897Z,4.70
2017-10-29T10:27:45.800Z,2.67
2017-10-29T10:30:12.711Z,3.20
2017-10-29T10:32:39.568Z,2.50
2017-10-29T10:35:06.425Z,7.90
2017-10-29T10:37:33.343Z,7.03
2017-10-29T10:40:00.243Z,18.10
2017-10-29T10:42:27.840Z,13.20
2017-10-29T10:44:54.680Z,5.00
2017-10-29T10:47:21.556Z,4.47
2017-10-29T10:49:48.419Z,4.93
2017-10-29T10:52:15.384Z,5.00
2017-10-29T10:54:42.267Z,3.93
2017-10-29T10:57:09.149Z,4.03
2017-10-29T10:59:36.024Z,4.73
2017-10-29T11:02:02.869Z,3.77
2017-10-29T11:04:40.556Z,4.33
2017-10-29T11:07:07.446Z,4.03
2017-10-29T11:09:34.304Z,4.20
2017-10-29T11:12:01.163Z,3.67
2017-10-29T11:14:28.095Z,3.40
2017-10-29T11:16:55.004Z,3.47
2017-10-29T11:19:21.864Z,3.33
2017-10-29T11:21:48.731Z,3.40
2017-10-29T11:24:15.634Z,3.77
2017-10-29T11:26:42.477Z,4.23
2017-10-29T11:29:10.106Z,4.40
2017-10-29T11:31:36.959Z,4.10
2017-10-29T11:34:03.831Z,3.03
2017-10-29T11:36:30.685Z,3.97
2017-10-29T11:38:57.544Z,4.00
2017-10-29T11:41:24.369Z,4.30
2017-10-29T11:43:51.247Z,3.73
2017-10-29T11:46:18.191Z,3.33
2017-10-29T11:48:45.773Z,3.20
2017-10-29T11:51:13.395Z,3.07
2017-10-29T11:53:40.240Z,2.27
2017-10-29T11:56:07.097Z,3.17
2017-10-29T11:58:33.947Z,2.27
2017-10-29T12:01:00.791Z,2.60
2017-10-29T12:03:28.416Z,2.40
2017-10-29T12:05:55.293Z,2.13
2017-10-29T12:08:22.149Z,2.70
2017-10-29T12:10:49.081Z,4.70
2017-10-29T12:13:15.966Z,4.27
2017-10-29T12:15:42.851Z,3.53
2017-10-29T12:18:09.812Z,3.03
2017-10-29T12:20:36.753Z,3.10
2017-10-29T12:23:03.665Z,3.03
2017-10-29T12:25:31.327Z,1.27
2017-10-29T12:27:58.248Z,2.53
2017-10-29T12:30:25.103Z,2.20
2017-10-29T12:32:51.956Z,3.00
2017-10-29T12:35:18.852Z,3.20
2017-10-29T12:37:45.685Z,3.00
2017-10-29T12:40:12.536Z,3.40
2017-10-29T12:42:39.529Z,2.63
2017-10-29T12:45:06.414Z,2.93
2017-10-29T12:47:33.288Z,2.97
2017-10-29T12:50:00.144Z,3.10
2017-10-29T12:52:27.010Z,4.10
2017-10-29T12:54:53.858Z,4.30
2017-10-29T12:57:20.778Z,4.47
2017-10-29T12:59:47.628Z,3.90
2017-10-29T13:02:14.511Z,4.07
2017-10-29T13:04:41.362Z,4.47
2017-10-29T13:07:08.251Z,4.53
2017-10-29T13:09:35.088Z,3.73
2017-10-29T13:12:01.930Z,4.30
2017-10-29T13:14:28.937Z,3.37
2017-10-29T13:16:55.815Z,4.20
2017-10-29T13:19:22.768Z,4.07
2017-10-29T13:21:49.622Z,3.67
2017-10-29T13:24:16.482Z,6.50
2017-10-29T13:26:43.312Z,4.73
2017-10-29T13:29:10.175Z,4.93
2017-10-29T13:31:37.003Z,3.77
2017-10-29T13:34:03.825Z,5.20
2017-10-29T13:36:30.680Z,4.27
2017-10-29T13:38:57.543Z,3.50
2017-10-29T13:41:24.380Z,4.20
2017-10-29T13:43:51.250Z,4.50
2017-10-29T13:46:18.090Z,4.50
2017-10-29T13:48:45.706Z,3.60
2017-10-29T13:51:12.570Z,3.33
2017-10-29T13:53:39.400Z,4.83
2017-10-29T13:56:06.297Z,4.00
2017-10-29T13:58:33.540Z,4.33
2017-10-29T14:01:00.385Z,3.33
2017-10-29T14:03:27.977Z,4.47
2017-10-29T14:05:54.815Z,4.60
2017-10-29T14:08:22.418Z,5.20
2017-10-29T14:10:49.303Z,4.50
2017-10-29T14:13:16.936Z,4.07
2017-10-29T14:15:44.524Z,4.67
2017-10-29T14:18:12.129Z,4.23
2017-10-29T14:20:39.029Z,3.00
2017-10-29T14:23:05.875Z,3.20
2017-10-29T14:25:32.748Z,4.50
2017-10-29T14:27:59.595Z,3.87
2017-10-29T14:30:26.477Z,3.80
2017-10-29T14:32:53.341Z,3.73
2017-10-29T14:35:20.192Z,5.00
2017-10-29T14:37:47.040Z,4.10
2017-10-29T14:40:13.895Z,3.03
2017-10-29T14:42:40.859Z,3.53
2017-10-29T14:45:07.772Z,2.90
2017-10-29T14:47:35.365Z,3.73
2017-10-29T14:50:02.996Z,4.37
2017-10-29T14:52:29.829Z,4.70
2017-10-29T14:54:56.691Z,3.73
2017-10-29T14:57:23.568Z,3.87
2017-10-29T14:59:50.406Z,4.30
2017-10-29T15:02:17.271Z,3.47
2017-10-29T15:04:44.129Z,2.97
2017-10-29T15:07:10.959Z,3.80
2017-10-29T15:09:38.548Z,3.23
2017-10-29T15:12:06.179Z,3.40
2017-10-29T15:14:33.043Z,3.73
2017-10-29T15:16:59.951Z,3.50
2017-10-29T15:19:27.537Z,3.70
2017-10-29T15:21:54.366Z,3.40
2017-10-29T15:24:21.253Z,3.83
2017-10-29T15:26:48.110Z,4.33
2017-10-29T15:29:15.064Z,3.50
2017-10-29T15:31:42.689Z,3.17
2017-10-29T15:34:09.557Z,6.07
2017-10-29T15:36:36.431Z,4.77
2017-10-29T15:39:03.372Z,3.60
2017-10-29T15:41:30.234Z,4.97
2017-10-29T15:43:57.105Z,4.20
2017-10-29T15:46:23.981Z,5.03
2017-10-29T15:48:50.841Z,4.20
2017-10-29T15:51:17.792Z,4.13
2017-10-29T15:53:44.724Z,3.77
2017-10-29T15:56:12.474Z,3.23
2017-10-29T15:58:39.335Z,3.10
2017-10-29T16:01:06.203Z,3.17
2017-10-29T16:03:33.048Z,3.37
2017-10-29T16:05:59.901Z,4.03
2017-10-29T16:08:26.750Z,2.87
2017-10-29T16:10:53.589Z,3.60
2017-10-29T16:13:20.462Z,3.30
2017-10-29T16:15:47.302Z,3.17
2017-10-29T16:18:15.232Z,3.60
2017-10-29T16:20:42.084Z,3.47
2017-10-29T16:23:08.889Z,3.97
2017-10-29T16:25:36.475Z,3.10
2017-10-29T16:28:04.037Z,3.17
2017-10-29T16:30:31.673Z,2.93
2017-10-29T16:32:58.486Z,2.60
2017-10-29T16:35:26.080Z,3.03
2017-10-29T16:37:52.967Z,3.40
2017-10-29T16:40:19.816Z,3.37
2017-10-29T16:42:47.414Z,2.90
2017-10-29T16:45:14.446Z,2.93
2017-10-29T16:47:41.345Z,2.73
2017-10-29T16:50:08.207Z,4.10
2017-10-29T16:52:35.027Z,4.03
2017-10-29T16:55:01.886Z,3.83
2017-10-29T16:57:28.739Z,3.13
2017-10-29T16:59:56.323Z,3.47
2017-10-29T17:02:23.887Z,3.60
2017-10-29T17:04:51.446Z,3.77
2017-10-29T17:07:18.248Z,3.57
2017-10-29T17:09:45.109Z,3.30
2017-10-29T17:12:11.962Z,3.10
2017-10-29T17:14:39.563Z,3.30
2017-10-29T17:17:06.386Z,2.70
2017-10-29T17:19:33.979Z,3.60
2017-10-29T17:22:01.662Z,3.73
2017-10-29T17:24:29.300Z,2.80
2017-10-29T17:26:56.112Z,3.80
2017-10-29T17:29:22.971Z,3.93
2017-10-29T17:31:49.934Z,3.77
2017-10-29T17:34:16.836Z,4.23
2017-10-29T17:36:43.778Z,4.57
2017-10-29T17:39:10.704Z,4.03
2017-10-29T17:41:37.557Z,5.93
2017-10-29T17:44:04.464Z,5.13
2017-10-29T17:46:31.506Z,3.87
2017-10-29T17:48:59.044Z,3.93
2017-10-29T17:51:25.902Z,4.43
2017-10-29T17:53:52.724Z,4.60
2017-10-29T17:56:19.608Z,4.43
2017-10-29T17:58:46.627Z,4.63
2017-10-29T18:01:13.642Z,6.20
2017-10-29T18:03:41.515Z,5.03
2017-10-29T18:06:08.485Z,5.00
2017-10-29T18:08:35.333Z,6.17
2017-10-29T18:11:02.241Z,7.10
2017-10-29T18:13:29.632Z,6.47
2017-10-29T18:15:56.702Z,4.27
2017-10-29T18:18:24.030Z,5.80
2017-10-29T18:20:50.943Z,4.80
2017-10-29T18:23:17.912Z,4.97
2017-10-29T18:25:45.537Z,4.53
2017-10-29T18:28:12.430Z,5.53
2017-10-29T18:30:39.359Z,5.30
2017-10-29T18:33:06.195Z,5.53
2017-10-29T18:35:34.061Z,6.50
2017-10-29T18:38:01.099Z,6.20
2017-10-29T18:40:29.735Z,5.93
2017-10-29T18:42:57.030Z,7.60
2017-10-29T18:45:25.124Z,7.00
2017-10-29T18:47:53.111Z,7.20
2017-10-29T18:50:20.824Z,7.50
2017-10-29T18:52:48.526Z,6.70
2017-10-29T18:55:15.391Z,6.10
2017-10-29T18:57:43.052Z,8.90
2017-10-29T19:00:10.970Z,6.77
2017-10-29T19:02:39.438Z,7.00
2017-10-29T19:05:06.431Z,6.13
2017-10-29T19:07:33.579Z,6.00
2017-10-29T19:10:01.779Z,7.03
2017-10-29T19:12:29.517Z,6.70
2017-10-29T19:14:56.660Z,7.30
2017-10-29T19:17:23.522Z,8.57
2017-10-29T19:19:50.379Z,9.80
2017-10-29T19:22:17.348Z,21.60
2017-10-29T19:24:44.857Z,8.87
2017-10-29T19:27:12.659Z,17.60
2017-10-29T19:29:41.118Z,14.07
2017-10-29T19:32:08.531Z,8.37
2017-10-29T19:34:36.187Z,9.07
2017-10-29T19:37:03.968Z,8.77
2017-10-29T19:39:32.645Z,8.97
2017-10-29T19:42:02.381Z,7.80
2017-10-29T19:44:30.486Z,7.70
2017-10-29T19:46:58.894Z,10.50
2017-10-29T19:49:27.228Z,8.60
2017-10-29T19:51:54.861Z,9.30
2017-10-29T19:54:23.723Z,7.80
2017-10-29T19:56:51.094Z,10.43
2017-10-29T19:59:18.325Z,9.90
2017-10-29T20:01:47.405Z,7.10
2017-10-29T20:04:14.389Z,7.40
2017-10-29T20:06:41.768Z,7.00
2017-10-29T20:09:10.342Z,7.40
2017-10-29T20:11:37.424Z,8.63
2017-10-29T20:14:04.715Z,7.10
2017-10-29T20:16:31.559Z,7.23
2017-10-29T20:18:58.445Z,7.30
2017-10-29T20:21:25.299Z,6.33
2017-10-29T20:23:52.932Z,8.23
2017-10-29T20:26:19.853Z,7.10
2017-10-29T20:28:49.017Z,6.07
2017-10-29T20:31:16.559Z,6.82
2017-10-29T20:33:44.519Z,6.70
2017-10-29T20:36:13.169Z,5.87
2017-10-29T20:38:41.068Z,7.23
2017-10-29T20:41:08.073Z,6.27
2017-10-29T20:43:34.999Z,7.17
2017-10-29T20:46:02.652Z,6.50
2017-10-29T20:48:29.880Z,6.50
2017-10-29T20:51:00.206Z,6.87
2017-10-29T20:53:29.238Z,8.13
2017-10-29T20:55:56.438Z,6.00
2017-10-29T20:58:23.331Z,6.70
2017-10-29T21:00:50.202Z,5.70
2017-10-29T21:03:17.325Z,6.15
2017-10-29T21:05:44.303Z,6.93
2017-10-29T21:08:11.250Z,5.50
2017-10-29T21:10:38.908Z,7.07
2017-10-29T21:13:05.911Z,6.70
2017-10-29T21:15:33.168Z,7.17
2017-10-29T21:18:00.165Z,6.43
2017-10-29T21:20:27.240Z,6.97
2017-10-29T21:22:54.159Z,6.90
2017-10-29T21:25:21.084Z,5.93
2017-10-29T21:27:48.025Z,6.10
2017-10-29T21:30:14.941Z,8.03
2017-10-29T21:32:42.563Z,6.40
2017-10-29T21:35:09.427Z,6.00
2017-10-29T21:37:36.292Z,7.17
2017-10-29T21:40:03.146Z,7.40
2017-10-29T21:42:30.059Z,7.23
2017-10-29T21:44:57.660Z,6.23
2017-10-29T21:47:24.543Z,6.17
2017-10-29T21:49:51.404Z,7.00
2017-10-29T21:52:18.281Z,6.10
2017-10-29T21:54:45.143Z,5.70
2017-10-29T21:57:12.004Z,5.23
2017-10-29T21:59:39.492Z,6.83
2017-10-29T22:02:06.369Z,6.80
2017-10-29T22:04:33.228Z,6.57
2017-10-29T22:07:00.097Z,5.73
2017-10-29T22:09:26.958Z,6.47
2017-10-29T22:11:53.864Z,8.50
2017-10-29T22:14:20.706Z,7.10
2017-10-29T22:16:47.535Z,6.72
2017-10-29T22:19:14.440Z,6.00
2017-10-29T22:21:41.327Z,6.23
2017-10-29T22:24:08.207Z,5.13
2017-10-29T22:26:35.094Z,6.10
2017-10-29T22:29:02.737Z,7.32
2017-10-29T22:31:29.586Z,4.80
2017-10-29T22:33:56.440Z,5.97
2017-10-29T22:36:23.325Z,7.83
2017-10-29T22:38:50.227Z,6.35
2017-10-29T22:41:17.843Z,6.62
2017-10-29T22:43:44.777Z,6.00
2017-10-29T22:46:12.357Z,8.63
2017-10-29T22:48:39.963Z,8.07
2017-10-29T22:51:06.832Z,7.63
2017-10-29T22:53:33.693Z,8.27
2017-10-29T22:56:00.529Z,7.60
2017-10-29T22:58:27.383Z,8.40
2017-10-29T23:00:54.970Z,8.07
2017-10-29T23:03:21.805Z,6.55
2017-10-29T23:05:55.300Z,6.93
2017-10-29T23:08:30.232Z,5.93
2017-10-29T23:10:57.094Z,7.20
2017-10-29T23:13:23.969Z,6.37
2017-10-29T23:15:50.827Z,6.73
2017-10-29T23:18:17.680Z,7.50
2017-10-29T23:20:44.573Z,10.37
2017-10-29T23:23:11.403Z,7.07
2017-10-29T23:25:38.288Z,16.40
2017-10-29T23:28:05.162Z,8.30
2017-10-29T23:30:32.772Z,49.47
2017-10-29T23:32:59.633Z,16.97
2017-10-29T23:35:26.509Z,10.85
2017-10-29T23:37:53.381Z,22.73
2017-10-29T23:40:20.222Z,7.37
2017-10-29T23:42:47.082Z,6.70
2017-10-29T23:45:13.936Z,33.97
2017-10-29T23:47:40.801Z,11.10
2017-10-29T23:50:07.675Z,7.23
2017-10-29T23:52:34.504Z,6.40
2017-10-29T23:55:02.171Z,7.47
2017-10-29T23:57:29.784Z,6.78
2017-10-29T23:59:56.628Z,6.45
